sensor_id;sensor_type;location;lat;lon;timestamp;P1;durP1;ratioP1;P2;durP2;ratioP2
22894;SDS011;11614;52.494;6.976;2023-07-20T00:01:59;3.27;;;1.50;;
22894;SDS011;11614;52.494;6.976;2023-07-20T00:04:25;3.13;;;1.80;;
22894;SDS011;11614;52.494;6.976;2023-07-20T00:06:51;2.87;;;1.97;;
22894;SDS011;11614;52.494;6.976;2023-07-20T00:09:17;2.13;;;1.67;;
22894;SDS011;11614;52.494;6.976;2023-07-20T00:11:48;2.47;;;1.77;;
22894;SDS011;11614;52.494;6.976;2023-07-20T00:14:15;2.77;;;1.93;;
22894;SDS011;11614;52.494;6.976;2023-07-20T00:16:41;2.30;;;1.80;;
22894;SDS011;11614;52.494;6.976;2023-07-20T00:19:07;3.47;;;2.17;;
22894;SDS011;11614;52.494;6.976;2023-07-20T00:21:33;3.37;;;2.83;;
22894;SDS011;11614;52.494;6.976;2023-07-20T00:23:58;4.10;;;2.63;;
22894;SDS011;11614;52.494;6.976;2023-07-20T00:26:24;4.90;;;2.60;;
22894;SDS011;11614;52.494;6.976;2023-07-20T00:28:50;4.70;;;2.97;;
22894;SDS011;11614;52.494;6.976;2023-07-20T00:31:16;4.03;;;3.00;;
22894;SDS011;11614;52.494;6.976;2023-07-20T00:33:42;4.43;;;3.33;;
22894;SDS011;11614;52.494;6.976;2023-07-20T00:36:09;4.57;;;3.10;;
22894;SDS011;11614;52.494;6.976;2023-07-20T00:38:35;4.63;;;3.63;;
22894;SDS011;11614;52.494;6.976;2023-07-20T00:41:01;5.47;;;3.63;;
22894;SDS011;11614;52.494;6.976;2023-07-20T00:43:26;5.43;;;3.80;;
22894;SDS011;11614;52.494;6.976;2023-07-20T00:45:52;6.07;;;3.90;;
22894;SDS011;11614;52.494;6.976;2023-07-20T00:48:18;4.00;;;3.20;;
22894;SDS011;11614;52.494;6.976;2023-07-20T00:50:45;5.50;;;4.00;;
22894;SDS011;11614;52.494;6.976;2023-07-20T00:53:13;6.33;;;4.40;;
22894;SDS011;11614;52.494;6.976;2023-07-20T00:55:39;5.00;;;3.93;;
22894;SDS011;11614;52.494;6.976;2023-07-20T00:58:05;7.17;;;4.23;;
22894;SDS011;11614;52.494;6.976;2023-07-20T01:00:32;5.37;;;4.00;;
22894;SDS011;11614;52.494;6.976;2023-07-20T01:02:58;5.93;;;4.43;;
22894;SDS011;11614;52.494;6.976;2023-07-20T01:08:31;5.80;;;4.37;;
22894;SDS011;11614;52.494;6.976;2023-07-20T01:11:06;7.77;;;4.73;;
22894;SDS011;11614;52.494;6.976;2023-07-20T01:13:40;6.20;;;4.33;;
22894;SDS011;11614;52.494;6.976;2023-07-20T01:16:07;6.07;;;4.60;;
22894;SDS011;11614;52.494;6.976;2023-07-20T01:18:34;6.03;;;4.17;;
22894;SDS011;11614;52.494;6.976;2023-07-20T01:21:03;6.27;;;4.20;;
22894;SDS011;11614;52.494;6.976;2023-07-20T01:31:14;5.60;;;3.43;;
22894;SDS011;11614;52.494;6.976;2023-07-20T01:33:49;5.13;;;3.77;;
22894;SDS011;11614;52.494;6.976;2023-07-20T01:36:17;4.87;;;3.40;;
22894;SDS011;11614;52.494;6.976;2023-07-20T01:38:44;5.27;;;3.73;;
22894;SDS011;11614;52.494;6.976;2023-07-20T01:41:11;6.03;;;3.93;;
22894;SDS011;11614;52.494;6.976;2023-07-20T01:43:37;6.30;;;4.27;;
22894;SDS011;11614;52.494;6.976;2023-07-20T01:46:03;6.83;;;3.87;;
22894;SDS011;11614;52.494;6.976;2023-07-20T01:48:29;5.47;;;4.00;;
22894;SDS011;11614;52.494;6.976;2023-07-20T01:50:55;5.53;;;4.00;;
22894;SDS011;11614;52.494;6.976;2023-07-20T01:53:22;5.53;;;3.33;;
22894;SDS011;11614;52.494;6.976;2023-07-20T01:55:47;4.23;;;3.13;;
22894;SDS011;11614;52.494;6.976;2023-07-20T01:58:13;3.90;;;3.00;;
22894;SDS011;11614;52.494;6.976;2023-07-20T02:00:39;3.50;;;2.83;;
22894;SDS011;11614;52.494;6.976;2023-07-20T02:03:05;3.53;;;2.63;;
22894;SDS011;11614;52.494;6.976;2023-07-20T02:05:32;3.33;;;2.97;;
22894;SDS011;11614;52.494;6.976;2023-07-20T02:07:58;3.07;;;2.60;;
22894;SDS011;11614;52.494;6.976;2023-07-20T02:10:24;4.83;;;3.10;;
22894;SDS011;11614;52.494;6.976;2023-07-20T02:12:49;3.93;;;2.57;;
22894;SDS011;11614;52.494;6.976;2023-07-20T02:15:17;3.00;;;2.37;;
22894;SDS011;11614;52.494;6.976;2023-07-20T02:17:43;3.30;;;2.57;;
22894;SDS011;11614;52.494;6.976;2023-07-20T02:20:10;3.27;;;2.80;;
22894;SDS011;11614;52.494;6.976;2023-07-20T02:22:36;3.03;;;2.37;;
22894;SDS011;11614;52.494;6.976;2023-07-20T02:25:05;3.20;;;2.70;;
22894;SDS011;11614;52.494;6.976;2023-07-20T02:27:32;3.13;;;2.47;;
22894;SDS011;11614;52.494;6.976;2023-07-20T02:29:58;3.50;;;2.60;;
22894;SDS011;11614;52.494;6.976;2023-07-20T02:32:24;3.43;;;2.30;;
22894;SDS011;11614;52.494;6.976;2023-07-20T02:34:50;3.67;;;2.50;;
22894;SDS011;11614;52.494;6.976;2023-07-20T02:37:16;5.37;;;2.40;;
22894;SDS011;11614;52.494;6.976;2023-07-20T02:39:42;3.23;;;2.70;;
22894;SDS011;11614;52.494;6.976;2023-07-20T02:42:08;3.27;;;2.50;;
22894;SDS011;11614;52.494;6.976;2023-07-20T02:44:34;4.13;;;2.77;;
22894;SDS011;11614;52.494;6.976;2023-07-20T02:47:00;4.00;;;2.40;;
22894;SDS011;11614;52.494;6.976;2023-07-20T02:49:26;4.53;;;2.60;;
22894;SDS011;11614;52.494;6.976;2023-07-20T02:51:53;3.93;;;2.63;;
22894;SDS011;11614;52.494;6.976;2023-07-20T02:54:19;4.83;;;3.20;;
22894;SDS011;11614;52.494;6.976;2023-07-20T02:56:45;4.43;;;3.00;;
22894;SDS011;11614;52.494;6.976;2023-07-20T02:59:11;3.53;;;2.53;;
22894;SDS011;11614;52.494;6.976;2023-07-20T03:01:37;4.53;;;3.27;;
22894;SDS011;11614;52.494;6.976;2023-07-20T03:04:03;5.40;;;3.03;;
22894;SDS011;11614;52.494;6.976;2023-07-20T03:06:29;5.93;;;3.20;;
22894;SDS011;11614;52.494;6.976;2023-07-20T03:08:55;3.53;;;2.90;;
22894;SDS011;11614;52.494;6.976;2023-07-20T03:11:22;6.20;;;3.50;;
22894;SDS011;11614;52.494;6.976;2023-07-20T03:13:48;4.70;;;3.50;;
22894;SDS011;11614;52.494;6.976;2023-07-20T03:16:16;4.40;;;3.00;;
22894;SDS011;11614;52.494;6.976;2023-07-20T03:18:43;3.77;;;2.90;;
22894;SDS011;11614;52.494;6.976;2023-07-20T03:21:09;6.23;;;3.63;;
22894;SDS011;11614;52.494;6.976;2023-07-20T03:23:39;5.43;;;4.00;;
22894;SDS011;11614;52.494;6.976;2023-07-20T03:26:05;5.20;;;4.27;;
22894;SDS011;11614;52.494;6.976;2023-07-20T03:28:37;5.67;;;4.20;;
22894;SDS011;11614;52.494;6.976;2023-07-20T03:31:04;6.33;;;4.40;;
22894;SDS011;11614;52.494;6.976;2023-07-20T03:33:30;6.53;;;4.90;;
22894;SDS011;11614;52.494;6.976;2023-07-20T03:35:56;6.07;;;4.57;;
22894;SDS011;11614;52.494;6.976;2023-07-20T03:38:23;7.80;;;5.23;;
22894;SDS011;11614;52.494;6.976;2023-07-20T03:40:50;7.60;;;5.17;;
22894;SDS011;11614;52.494;6.976;2023-07-20T03:43:16;7.97;;;5.17;;
22894;SDS011;11614;52.494;6.976;2023-07-20T03:45:41;7.93;;;5.47;;
22894;SDS011;11614;52.494;6.976;2023-07-20T03:48:07;7.93;;;5.80;;
22894;SDS011;11614;52.494;6.976;2023-07-20T03:50:34;7.60;;;5.90;;
22894;SDS011;11614;52.494;6.976;2023-07-20T03:53:00;9.20;;;6.43;;
22894;SDS011;11614;52.494;6.976;2023-07-20T03:55:26;8.03;;;6.30;;
22894;SDS011;11614;52.494;6.976;2023-07-20T03:57:52;8.73;;;6.20;;
22894;SDS011;11614;52.494;6.976;2023-07-20T04:00:18;8.93;;;6.33;;
22894;SDS011;11614;52.494;6.976;2023-07-20T04:02:44;8.53;;;6.30;;
22894;SDS011;11614;52.494;6.976;2023-07-20T04:05:10;8.97;;;6.67;;
22894;SDS011;11614;52.494;6.976;2023-07-20T04:07:36;10.63;;;7.07;;
22894;SDS011;11614;52.494;6.976;2023-07-20T04:10:02;9.00;;;6.30;;
22894;SDS011;11614;52.494;6.976;2023-07-20T04:12:28;9.33;;;6.47;;
22894;SDS011;11614;52.494;6.976;2023-07-20T04:14:54;8.43;;;6.63;;
22894;SDS011;11614;52.494;6.976;2023-07-20T04:17:19;10.90;;;6.47;;
22894;SDS011;11614;52.494;6.976;2023-07-20T04:19:45;11.93;;;7.20;;
22894;SDS011;11614;52.494;6.976;2023-07-20T04:22:11;8.50;;;6.00;;
22894;SDS011;11614;52.494;6.976;2023-07-20T04:24:40;10.47;;;6.73;;
22894;SDS011;11614;52.494;6.976;2023-07-20T04:27:06;8.53;;;5.83;;
22894;SDS011;11614;52.494;6.976;2023-07-20T04:29:32;8.43;;;6.10;;
22894;SDS011;11614;52.494;6.976;2023-07-20T04:31:58;8.23;;;6.20;;
22894;SDS011;11614;52.494;6.976;2023-07-20T04:34:24;8.93;;;6.23;;
22894;SDS011;11614;52.494;6.976;2023-07-20T04:36:50;10.70;;;6.60;;
22894;SDS011;11614;52.494;6.976;2023-07-20T04:39:15;10.13;;;5.80;;
22894;SDS011;11614;52.494;6.976;2023-07-20T04:41:41;7.53;;;5.50;;
22894;SDS011;11614;52.494;6.976;2023-07-20T04:44:10;7.47;;;5.53;;
22894;SDS011;11614;52.494;6.976;2023-07-20T04:46:36;9.93;;;6.37;;
22894;SDS011;11614;52.494;6.976;2023-07-20T04:49:02;7.53;;;5.87;;
22894;SDS011;11614;52.494;6.976;2023-07-20T04:51:28;8.03;;;5.87;;
22894;SDS011;11614;52.494;6.976;2023-07-20T04:53:55;7.90;;;5.60;;
22894;SDS011;11614;52.494;6.976;2023-07-20T04:56:21;6.47;;;4.80;;
22894;SDS011;11614;52.494;6.976;2023-07-20T04:58:48;7.33;;;4.93;;
22894;SDS011;11614;52.494;6.976;2023-07-20T05:01:14;7.43;;;4.90;;
22894;SDS011;11614;52.494;6.976;2023-07-20T05:03:40;5.03;;;4.53;;
22894;SDS011;11614;52.494;6.976;2023-07-20T05:06:06;7.50;;;5.30;;
22894;SDS011;11614;52.494;6.976;2023-07-20T05:08:32;5.60;;;4.60;;
22894;SDS011;11614;52.494;6.976;2023-07-20T05:10:59;7.50;;;5.22;;
22894;SDS011;11614;52.494;6.976;2023-07-20T05:13:25;7.05;;;4.82;;
22894;SDS011;11614;52.494;6.976;2023-07-20T05:15:52;5.18;;;3.88;;
22894;SDS011;11614;52.494;6.976;2023-07-20T05:18:18;5.43;;;4.32;;
22894;SDS011;11614;52.494;6.976;2023-07-20T05:20:48;4.15;;;3.75;;
22894;SDS011;11614;52.494;6.976;2023-07-20T05:23:14;5.32;;;4.28;;
22894;SDS011;11614;52.494;6.976;2023-07-20T05:25:40;4.38;;;3.97;;
22894;SDS011;11614;52.494;6.976;2023-07-20T05:28:07;5.28;;;3.90;;
22894;SDS011;11614;52.494;6.976;2023-07-20T05:30:33;4.80;;;3.70;;
22894;SDS011;11614;52.494;6.976;2023-07-20T05:32:59;6.65;;;3.92;;
22894;SDS011;11614;52.494;6.976;2023-07-20T05:35:25;4.18;;;3.20;;
22894;SDS011;11614;52.494;6.976;2023-07-20T05:37:51;3.30;;;2.95;;
22894;SDS011;11614;52.494;6.976;2023-07-20T05:40:17;3.35;;;3.03;;
22894;SDS011;11614;52.494;6.976;2023-07-20T05:42:45;3.78;;;3.03;;
22894;SDS011;11614;52.494;6.976;2023-07-20T05:45:11;4.40;;;3.53;;
22894;SDS011;11614;52.494;6.976;2023-07-20T05:47:38;4.32;;;2.95;;
22894;SDS011;11614;52.494;6.976;2023-07-20T05:50:04;4.72;;;3.25;;
22894;SDS011;11614;52.494;6.976;2023-07-20T05:52:30;2.97;;;2.63;;
22894;SDS011;11614;52.494;6.976;2023-07-20T05:54:56;3.63;;;2.45;;
22894;SDS011;11614;52.494;6.976;2023-07-20T05:57:22;2.83;;;2.63;;
22894;SDS011;11614;52.494;6.976;2023-07-20T05:59:48;2.53;;;2.33;;
22894;SDS011;11614;52.494;6.976;2023-07-20T06:02:14;2.63;;;2.42;;
22894;SDS011;11614;52.494;6.976;2023-07-20T06:04:40;3.03;;;2.60;;
22894;SDS011;11614;52.494;6.976;2023-07-20T06:07:06;2.90;;;2.60;;
22894;SDS011;11614;52.494;6.976;2023-07-20T06:09:35;4.60;;;2.63;;
22894;SDS011;11614;52.494;6.976;2023-07-20T06:12:01;3.50;;;2.17;;
22894;SDS011;11614;52.494;6.976;2023-07-20T06:14:27;3.75;;;2.65;;
22894;SDS011;11614;52.494;6.976;2023-07-20T06:16:53;2.78;;;1.80;;
22894;SDS011;11614;52.494;6.976;2023-07-20T06:19:19;2.97;;;2.42;;
22894;SDS011;11614;52.494;6.976;2023-07-20T06:21:47;4.53;;;2.63;;
22894;SDS011;11614;52.494;6.976;2023-07-20T06:24:14;2.40;;;2.05;;
22894;SDS011;11614;52.494;6.976;2023-07-20T06:26:40;3.13;;;1.77;;
22894;SDS011;11614;52.494;6.976;2023-07-20T06:29:06;2.03;;;1.80;;
22894;SDS011;11614;52.494;6.976;2023-07-20T06:31:33;2.47;;;2.00;;
22894;SDS011;11614;52.494;6.976;2023-07-20T06:33:59;2.45;;;2.00;;
22894;SDS011;11614;52.494;6.976;2023-07-20T06:36:25;2.30;;;1.92;;
22894;SDS011;11614;52.494;6.976;2023-07-20T06:38:52;5.72;;;3.75;;
22894;SDS011;11614;52.494;6.976;2023-07-20T06:41:18;1.98;;;1.75;;
22894;SDS011;11614;52.494;6.976;2023-07-20T06:43:44;2.03;;;1.40;;
22894;SDS011;11614;52.494;6.976;2023-07-20T06:46:10;2.15;;;1.45;;
22894;SDS011;11614;52.494;6.976;2023-07-20T06:48:36;0.98;;;0.95;;
22894;SDS011;11614;52.494;6.976;2023-07-20T06:51:02;1.63;;;1.42;;
22894;SDS011;11614;52.494;6.976;2023-07-20T06:53:29;1.85;;;1.23;;
22894;SDS011;11614;52.494;6.976;2023-07-20T06:55:55;3.05;;;1.38;;
22894;SDS011;11614;52.494;6.976;2023-07-20T06:58:24;2.03;;;1.40;;
22894;SDS011;11614;52.494;6.976;2023-07-20T07:00:51;1.27;;;1.17;;
22894;SDS011;11614;52.494;6.976;2023-07-20T07:03:17;0.93;;;0.93;;
22894;SDS011;11614;52.494;6.976;2023-07-20T07:05:43;2.20;;;1.10;;
22894;SDS011;11614;52.494;6.976;2023-07-20T07:08:15;2.65;;;1.48;;
22894;SDS011;11614;52.494;6.976;2023-07-20T07:10:41;2.60;;;1.55;;
22894;SDS011;11614;52.494;6.976;2023-07-20T07:13:07;1.65;;;1.30;;
22894;SDS011;11614;52.494;6.976;2023-07-20T07:15:33;1.27;;;1.17;;
22894;SDS011;11614;52.494;6.976;2023-07-20T07:17:59;1.75;;;1.50;;
22894;SDS011;11614;52.494;6.976;2023-07-20T07:20:25;1.23;;;1.10;;
22894;SDS011;11614;52.494;6.976;2023-07-20T07:22:52;1.45;;;1.35;;
22894;SDS011;11614;52.494;6.976;2023-07-20T07:25:20;0.90;;;0.90;;
22894;SDS011;11614;52.494;6.976;2023-07-20T07:27:46;1.38;;;0.82;;
22894;SDS011;11614;52.494;6.976;2023-07-20T07:30:12;1.38;;;1.13;;
22894;SDS011;11614;52.494;6.976;2023-07-20T07:32:38;2.03;;;1.08;;
22894;SDS011;11614;52.494;6.976;2023-07-20T07:35:04;0.75;;;0.70;;
22894;SDS011;11614;52.494;6.976;2023-07-20T07:37:30;1.00;;;1.00;;
22894;SDS011;11614;52.494;6.976;2023-07-20T07:39:57;1.52;;;1.02;;
22894;SDS011;11614;52.494;6.976;2023-07-20T07:42:23;2.05;;;1.10;;
22894;SDS011;11614;52.494;6.976;2023-07-20T07:44:48;1.23;;;0.90;;
22894;SDS011;11614;52.494;6.976;2023-07-20T07:47:14;1.50;;;1.40;;
22894;SDS011;11614;52.494;6.976;2023-07-20T07:49:41;1.70;;;1.60;;
22894;SDS011;11614;52.494;6.976;2023-07-20T07:52:07;1.42;;;1.33;;
22894;SDS011;11614;52.494;6.976;2023-07-20T07:54:33;2.50;;;2.00;;
22894;SDS011;11614;52.494;6.976;2023-07-20T07:56:59;1.50;;;1.40;;
22894;SDS011;11614;52.494;6.976;2023-07-20T07:59:25;1.77;;;1.30;;
22894;SDS011;11614;52.494;6.976;2023-07-20T08:01:51;1.95;;;1.50;;
22894;SDS011;11614;52.494;6.976;2023-07-20T08:04:17;4.18;;;1.50;;
22894;SDS011;11614;52.494;6.976;2023-07-20T08:06:44;1.30;;;1.20;;
22894;SDS011;11614;52.494;6.976;2023-07-20T08:09:10;1.75;;;1.60;;
22894;SDS011;11614;52.494;6.976;2023-07-20T08:11:38;1.40;;;1.30;;
22894;SDS011;11614;52.494;6.976;2023-07-20T08:14:04;1.55;;;1.45;;
22894;SDS011;11614;52.494;6.976;2023-07-20T08:16:30;1.77;;;1.67;;
22894;SDS011;11614;52.494;6.976;2023-07-20T08:18:56;1.30;;;1.20;;
22894;SDS011;11614;52.494;6.976;2023-07-20T08:21:22;1.20;;;1.10;;
22894;SDS011;11614;52.494;6.976;2023-07-20T08:23:48;1.65;;;1.55;;
22894;SDS011;11614;52.494;6.976;2023-07-20T08:26:14;1.30;;;1.10;;
22894;SDS011;11614;52.494;6.976;2023-07-20T08:28:42;1.20;;;1.10;;
22894;SDS011;11614;52.494;6.976;2023-07-20T08:31:08;2.33;;;1.10;;
22894;SDS011;11614;52.494;6.976;2023-07-20T08:33:34;0.90;;;0.90;;
22894;SDS011;11614;52.494;6.976;2023-07-20T08:36:00;1.10;;;1.00;;
22894;SDS011;11614;52.494;6.976;2023-07-20T08:38:28;2.05;;;1.45;;
22894;SDS011;11614;52.494;6.976;2023-07-20T08:40:54;1.15;;;1.10;;
22894;SDS011;11614;52.494;6.976;2023-07-20T08:43:20;2.35;;;1.60;;
22894;SDS011;11614;52.494;6.976;2023-07-20T08:45:49;4.05;;;1.77;;
22894;SDS011;11614;52.494;6.976;2023-07-20T08:48:15;2.15;;;1.60;;
22894;SDS011;11614;52.494;6.976;2023-07-20T08:50:42;1.17;;;1.10;;
22894;SDS011;11614;52.494;6.976;2023-07-20T08:53:08;2.20;;;1.60;;
22894;SDS011;11614;52.494;6.976;2023-07-20T08:55:36;1.00;;;1.00;;
22894;SDS011;11614;52.494;6.976;2023-07-20T08:58:02;1.58;;;1.48;;
22894;SDS011;11614;52.494;6.976;2023-07-20T09:00:28;1.42;;;1.33;;
22894;SDS011;11614;52.494;6.976;2023-07-20T09:02:55;1.63;;;1.52;;
22894;SDS011;11614;52.494;6.976;2023-07-20T09:05:22;2.10;;;1.65;;
22894;SDS011;11614;52.494;6.976;2023-07-20T09:07:48;1.20;;;1.10;;
22894;SDS011;11614;52.494;6.976;2023-07-20T09:10:14;1.20;;;1.20;;
22894;SDS011;11614;52.494;6.976;2023-07-20T09:12:41;1.17;;;1.17;;
22894;SDS011;11614;52.494;6.976;2023-07-20T09:15:08;1.33;;;1.25;;
22894;SDS011;11614;52.494;6.976;2023-07-20T09:17:35;1.90;;;1.80;;
22894;SDS011;11614;52.494;6.976;2023-07-20T09:20:02;1.10;;;1.10;;
22894;SDS011;11614;52.494;6.976;2023-07-20T09:22:32;1.25;;;1.15;;
22894;SDS011;11614;52.494;6.976;2023-07-20T09:24:58;3.38;;;1.30;;
22894;SDS011;11614;52.494;6.976;2023-07-20T09:27:40;1.02;;;0.98;;
22894;SDS011;11614;52.494;6.976;2023-07-20T09:30:06;1.35;;;1.25;;
22894;SDS011;11614;52.494;6.976;2023-07-20T09:32:40;1.02;;;1.02;;
22894;SDS011;11614;52.494;6.976;2023-07-20T09:35:06;1.38;;;1.30;;
22894;SDS011;11614;52.494;6.976;2023-07-20T09:37:33;1.10;;;1.10;;
22894;SDS011;11614;52.494;6.976;2023-07-20T09:39:59;1.42;;;1.20;;
22894;SDS011;11614;52.494;6.976;2023-07-20T09:42:25;0.85;;;0.85;;
22894;SDS011;11614;52.494;6.976;2023-07-20T09:44:52;1.52;;;1.42;;
22894;SDS011;11614;52.494;6.976;2023-07-20T09:47:21;1.55;;;1.30;;
22894;SDS011;11614;52.494;6.976;2023-07-20T09:49:47;1.10;;;1.00;;
22894;SDS011;11614;52.494;6.976;2023-07-20T09:52:14;1.52;;;1.20;;
22894;SDS011;11614;52.494;6.976;2023-07-20T09:54:40;1.40;;;1.20;;
22894;SDS011;11614;52.494;6.976;2023-07-20T09:57:08;1.40;;;1.30;;
22894;SDS011;11614;52.494;6.976;2023-07-20T09:59:35;1.27;;;1.17;;
22894;SDS011;11614;52.494;6.976;2023-07-20T10:02:01;1.35;;;1.25;;
22894;SDS011;11614;52.494;6.976;2023-07-20T10:04:31;1.60;;;1.20;;
22894;SDS011;11614;52.494;6.976;2023-07-20T10:06:59;1.65;;;1.08;;
22894;SDS011;11614;52.494;6.976;2023-07-20T10:09:27;1.60;;;0.85;;
22894;SDS011;11614;52.494;6.976;2023-07-20T10:11:54;1.55;;;0.82;;
22894;SDS011;11614;52.494;6.976;2023-07-20T10:14:21;0.70;;;0.70;;
22894;SDS011;11614;52.494;6.976;2023-07-20T10:16:50;1.05;;;1.00;;
22894;SDS011;11614;52.494;6.976;2023-07-20T10:19:24;1.95;;;1.45;;
22894;SDS011;11614;52.494;6.976;2023-07-20T10:22:07;1.30;;;1.20;;
22894;SDS011;11614;52.494;6.976;2023-07-20T10:24:35;2.58;;;1.48;;
22894;SDS011;11614;52.494;6.976;2023-07-20T10:27:02;1.25;;;1.10;;
22894;SDS011;11614;52.494;6.976;2023-07-20T10:29:28;2.70;;;1.75;;
22894;SDS011;11614;52.494;6.976;2023-07-20T10:31:55;1.58;;;1.48;;
22894;SDS011;11614;52.494;6.976;2023-07-20T10:34:21;1.52;;;1.38;;
22894;SDS011;11614;52.494;6.976;2023-07-20T10:36:48;1.58;;;1.45;;
22894;SDS011;11614;52.494;6.976;2023-07-20T10:39:26;0.98;;;0.98;;
22894;SDS011;11614;52.494;6.976;2023-07-20T10:42:08;4.40;;;2.72;;
22894;SDS011;11614;52.494;6.976;2023-07-20T10:44:36;1.70;;;1.60;;
22894;SDS011;11614;52.494;6.976;2023-07-20T10:47:03;3.40;;;1.95;;
22894;SDS011;11614;52.494;6.976;2023-07-20T10:49:32;1.23;;;1.13;;
22894;SDS011;11614;52.494;6.976;2023-07-20T10:51:59;2.55;;;0.88;;
22894;SDS011;11614;52.494;6.976;2023-07-20T10:56:51;1.58;;;1.10;;
22894;SDS011;11614;52.494;6.976;2023-07-20T11:01:44;1.83;;;1.10;;
22894;SDS011;11614;52.494;6.976;2023-07-20T11:04:10;1.50;;;1.00;;
22894;SDS011;11614;52.494;6.976;2023-07-20T11:06:36;1.55;;;1.23;;
22894;SDS011;11614;52.494;6.976;2023-07-20T11:09:06;2.22;;;1.58;;
22894;SDS011;11614;52.494;6.976;2023-07-20T11:11:36;1.60;;;1.30;;
22894;SDS011;11614;52.494;6.976;2023-07-20T11:14:03;1.60;;;1.27;;
22894;SDS011;11614;52.494;6.976;2023-07-20T11:16:43;2.53;;;1.27;;
22894;SDS011;11614;52.494;6.976;2023-07-20T11:19:22;1.58;;;1.25;;
22894;SDS011;11614;52.494;6.976;2023-07-20T11:21:52;2.58;;;1.40;;
22894;SDS011;11614;52.494;6.976;2023-07-20T11:24:18;1.45;;;1.08;;
22894;SDS011;11614;52.494;6.976;2023-07-20T11:26:48;1.98;;;1.50;;
22894;SDS011;11614;52.494;6.976;2023-07-20T11:29:15;1.65;;;1.23;;
22894;SDS011;11614;52.494;6.976;2023-07-20T11:31:42;2.03;;;1.60;;
22894;SDS011;11614;52.494;6.976;2023-07-20T11:34:14;1.65;;;1.52;;
22894;SDS011;11614;52.494;6.976;2023-07-20T11:36:41;2.90;;;1.73;;
22894;SDS011;11614;52.494;6.976;2023-07-20T11:39:10;1.42;;;1.33;;
22894;SDS011;11614;52.494;6.976;2023-07-20T11:41:36;2.63;;;1.33;;
22894;SDS011;11614;52.494;6.976;2023-07-20T11:44:03;2.58;;;1.50;;
22894;SDS011;11614;52.494;6.976;2023-07-20T11:46:31;1.45;;;1.35;;
22894;SDS011;11614;52.494;6.976;2023-07-20T11:49:00;1.05;;;1.05;;
22894;SDS011;11614;52.494;6.976;2023-07-20T11:51:27;1.05;;;0.93;;
22894;SDS011;11614;52.494;6.976;2023-07-20T11:53:54;0.98;;;0.98;;
22894;SDS011;11614;52.494;6.976;2023-07-20T11:56:20;1.77;;;0.85;;
22894;SDS011;11614;52.494;6.976;2023-07-20T11:58:46;1.58;;;1.10;;
22894;SDS011;11614;52.494;6.976;2023-07-20T12:01:15;1.48;;;1.08;;
22894;SDS011;11614;52.494;6.976;2023-07-20T12:03:42;0.68;;;0.68;;
22894;SDS011;11614;52.494;6.976;2023-07-20T12:06:08;0.70;;;0.70;;
22894;SDS011;11614;52.494;6.976;2023-07-20T12:08:35;6.43;;;4.70;;
22894;SDS011;11614;52.494;6.976;2023-07-20T12:11:03;1.35;;;1.08;;
22894;SDS011;11614;52.494;6.976;2023-07-20T12:13:38;0.80;;;0.52;;
22894;SDS011;11614;52.494;6.976;2023-07-20T12:16:11;0.70;;;0.70;;
22894;SDS011;11614;52.494;6.976;2023-07-20T12:18:38;1.17;;;1.08;;
22894;SDS011;11614;52.494;6.976;2023-07-20T12:21:05;1.30;;;1.30;;
22894;SDS011;11614;52.494;6.976;2023-07-20T12:23:35;1.42;;;1.33;;
22894;SDS011;11614;52.494;6.976;2023-07-20T12:26:02;1.55;;;1.20;;
22894;SDS011;11614;52.494;6.976;2023-07-20T12:28:29;1.35;;;1.25;;
22894;SDS011;11614;52.494;6.976;2023-07-20T12:30:55;2.03;;;1.23;;
22894;SDS011;11614;52.494;6.976;2023-07-20T12:33:21;1.70;;;1.60;;
22894;SDS011;11614;52.494;6.976;2023-07-20T12:35:48;1.85;;;1.75;;
22894;SDS011;11614;52.494;6.976;2023-07-20T12:38:14;1.75;;;1.65;;
22894;SDS011;11614;52.494;6.976;2023-07-20T12:40:40;1.63;;;1.52;;
22894;SDS011;11614;52.494;6.976;2023-07-20T12:43:07;1.42;;;1.33;;
22894;SDS011;11614;52.494;6.976;2023-07-20T12:45:33;2.42;;;1.55;;
22894;SDS011;11614;52.494;6.976;2023-07-20T12:47:59;1.50;;;1.40;;
22894;SDS011;11614;52.494;6.976;2023-07-20T12:50:25;1.38;;;1.27;;
22894;SDS011;11614;52.494;6.976;2023-07-20T12:52:51;1.50;;;1.40;;
22894;SDS011;11614;52.494;6.976;2023-07-20T12:55:17;1.90;;;1.80;;
22894;SDS011;11614;52.494;6.976;2023-07-20T12:57:43;2.42;;;1.73;;
22894;SDS011;11614;52.494;6.976;2023-07-20T13:00:09;2.05;;;1.42;;
22894;SDS011;11614;52.494;6.976;2023-07-20T13:02:37;1.42;;;1.23;;
22894;SDS011;11614;52.494;6.976;2023-07-20T13:05:03;1.50;;;1.40;;
22894;SDS011;11614;52.494;6.976;2023-07-20T13:07:33;1.70;;;1.60;;
22894;SDS011;11614;52.494;6.976;2023-07-20T13:09:59;1.02;;;1.02;;
22894;SDS011;11614;52.494;6.976;2023-07-20T13:12:28;1.42;;;1.33;;
22894;SDS011;11614;52.494;6.976;2023-07-20T13:14:55;1.48;;;1.38;;
22894;SDS011;11614;52.494;6.976;2023-07-20T13:17:22;1.65;;;1.38;;
22894;SDS011;11614;52.494;6.976;2023-07-20T13:19:48;1.63;;;1.52;;
22894;SDS011;11614;52.494;6.976;2023-07-20T13:22:14;1.00;;;0.98;;
22894;SDS011;11614;52.494;6.976;2023-07-20T13:24:40;1.42;;;1.33;;
22894;SDS011;11614;52.494;6.976;2023-07-20T13:27:06;1.27;;;1.20;;
22894;SDS011;11614;52.494;6.976;2023-07-20T13:29:32;1.50;;;1.40;;
22894;SDS011;11614;52.494;6.976;2023-07-20T13:31:58;1.75;;;1.50;;
22894;SDS011;11614;52.494;6.976;2023-07-20T13:34:27;1.23;;;1.13;;
22894;SDS011;11614;52.494;6.976;2023-07-20T13:36:53;1.30;;;1.20;;
22894;SDS011;11614;52.494;6.976;2023-07-20T13:39:19;1.60;;;1.50;;
22894;SDS011;11614;52.494;6.976;2023-07-20T13:41:49;2.92;;;1.20;;
22894;SDS011;11614;52.494;6.976;2023-07-20T13:44:15;1.10;;;1.00;;
22894;SDS011;11614;52.494;6.976;2023-07-20T13:46:41;1.08;;;1.00;;
22894;SDS011;11614;52.494;6.976;2023-07-20T13:49:07;1.55;;;1.45;;
22894;SDS011;11614;52.494;6.976;2023-07-20T13:51:33;1.70;;;1.10;;
22894;SDS011;11614;52.494;6.976;2023-07-20T13:54:02;1.20;;;1.10;;
22894;SDS011;11614;52.494;6.976;2023-07-20T13:56:31;1.88;;;1.27;;
22894;SDS011;11614;52.494;6.976;2023-07-20T13:58:57;2.17;;;1.15;;
22894;SDS011;11614;52.494;6.976;2023-07-20T14:01:23;2.08;;;1.10;;
22894;SDS011;11614;52.494;6.976;2023-07-20T14:03:50;1.80;;;1.02;;
22894;SDS011;11614;52.494;6.976;2023-07-20T14:06:16;1.50;;;0.80;;
22894;SDS011;11614;52.494;6.976;2023-07-20T14:08:42;1.02;;;0.95;;
22894;SDS011;11614;52.494;6.976;2023-07-20T14:11:11;1.23;;;1.10;;
22894;SDS011;11614;52.494;6.976;2023-07-20T14:13:37;0.85;;;0.65;;
22894;SDS011;11614;52.494;6.976;2023-07-20T14:16:03;5.03;;;3.80;;
22894;SDS011;11614;52.494;6.976;2023-07-20T14:18:30;1.45;;;1.00;;
22894;SDS011;11614;52.494;6.976;2023-07-20T14:20:56;1.10;;;1.00;;
22894;SDS011;11614;52.494;6.976;2023-07-20T14:23:22;2.42;;;0.93;;
22894;SDS011;11614;52.494;6.976;2023-07-20T14:25:48;1.10;;;1.00;;
22894;SDS011;11614;52.494;6.976;2023-07-20T14:28:14;1.25;;;0.80;;
22894;SDS011;11614;52.494;6.976;2023-07-20T14:30:40;2.28;;;0.63;;
22894;SDS011;11614;52.494;6.976;2023-07-20T14:33:07;0.70;;;0.70;;
22894;SDS011;11614;52.494;6.976;2023-07-20T14:35:33;2.10;;;1.20;;
22894;SDS011;11614;52.494;6.976;2023-07-20T14:37:59;1.05;;;0.70;;
22894;SDS011;11614;52.494;6.976;2023-07-20T14:40:26;1.83;;;1.10;;
22894;SDS011;11614;52.494;6.976;2023-07-20T14:42:52;1.52;;;0.98;;
22894;SDS011;11614;52.494;6.976;2023-07-20T14:45:18;1.52;;;1.10;;
22894;SDS011;11614;52.494;6.976;2023-07-20T14:47:44;0.80;;;0.77;;
22894;SDS011;11614;52.494;6.976;2023-07-20T14:50:10;2.15;;;1.23;;
22894;SDS011;11614;52.494;6.976;2023-07-20T14:52:36;2.17;;;1.35;;
22894;SDS011;11614;52.494;6.976;2023-07-20T14:55:02;1.20;;;1.08;;
22894;SDS011;11614;52.494;6.976;2023-07-20T14:57:29;1.58;;;1.48;;
22894;SDS011;11614;52.494;6.976;2023-07-20T14:59:55;0.98;;;0.80;;
22894;SDS011;11614;52.494;6.976;2023-07-20T15:02:21;1.25;;;1.15;;